Time;durP1;ratioP1;P1;durP2;ratioP2;P2;SDS_P1;SDS_P2;PMS_P1;PMS_P2;Temp;Humidity;BMP_temperature;BMP_pressure;BME280_temperature;BME280_humidity;BME280_pressure;Samples;Min_cycle;Max_cycle;Signal;HPM_P1;HPM_P2
2021/03/02 00:01:57;;;;;;;0.70;0.60;;;1.50;99.90;;;1.47;100.00;-20721.66;5053191;28;20251;-72
2021/03/02 00:04:24;;;;;;;0.70;0.70;;;1.50;99.90;;;1.57;100.00;-20724.59;5055100;28;20260;-72
2021/03/02 00:06:54;;;;;;;0.70;0.60;;;1.40;99.90;;;1.48;100.00;-20722.09;5038899;28;20201;-73
2021/03/02 00:09:22;;;;;;;0.70;0.60;;;1.50;99.90;;;1.43;100.00;-20720.81;5041529;28;20198;-73
2021/03/02 00:11:50;;;;;;;0.70;0.70;;;1.50;99.90;;;1.40;100.00;-20720.00;5054781;28;20600;-73
2021/03/02 00:14:18;;;;;;;0.70;0.65;;;1.40;99.90;;;1.45;100.00;-20721.38;5055078;28;20244;-72
2021/03/02 00:16:55;;;;;;;0.70;0.70;;;1.30;99.90;;;1.38;100.00;-20719.44;5037415;28;20253;-73
2021/03/02 00:19:32;;;;;;;0.70;0.68;;;1.30;99.90;;;1.44;100.00;-20720.97;5035327;28;20293;-73
2021/03/02 00:22:08;;;;;;;0.70;0.70;;;1.30;99.90;;;1.44;100.00;-20720.97;5048504;28;20207;-72
2021/03/02 00:24:37;;;;;;;0.70;0.60;;;1.20;99.90;;;1.39;100.00;-20719.56;5051432;28;20204;-73
2021/03/02 00:27:05;;;;;;;0.70;0.60;;;1.20;99.90;;;1.28;100.00;-20716.63;5053360;28;20540;-73
2021/03/02 00:29:34;;;;;;;0.70;0.60;;;1.20;99.90;;;1.28;100.00;-20716.50;5050954;28;20228;-71
2021/03/02 00:32:01;;;;;;;0.70;0.60;;;1.20;99.90;;;1.45;100.00;-20721.38;5054624;28;20170;-73
2021/03/02 00:34:28;;;;;;;0.70;0.70;;;1.20;99.90;;;1.38;100.00;-20719.44;5054061;28;20284;-73
2021/03/02 00:36:55;;;;;;;0.70;0.60;;;1.10;99.90;;;1.28;100.00;-20716.63;5047218;28;20288;-72
2021/03/02 00:39:23;;;;;;;0.70;0.60;;;1.10;99.90;;;1.22;100.00;-20714.97;5051646;28;20217;-73
2021/03/02 00:41:50;;;;;;;0.70;0.60;;;1.10;99.90;;;1.25;100.00;-20715.66;5054487;28;20186;-73
2021/03/02 00:44:17;;;;;;;0.70;0.60;;;1.10;99.90;;;1.28;100.00;-20716.63;5053379;28;20645;-73
2021/03/02 00:46:44;;;;;;;0.70;0.63;;;1.10;99.90;;;1.20;100.00;-20714.53;5043433;28;20182;-72
2021/03/02 00:49:12;;;;;;;0.80;0.70;;;1.10;99.90;;;1.23;100.00;-20715.22;5034882;28;20697;-72
2021/03/02 00:51:39;;;;;;;0.70;0.60;;;1.10;99.90;;;1.25;100.00;-20715.78;5044470;28;20247;-72
2021/03/02 00:54:07;;;;;;;0.80;0.70;;;1.10;99.90;;;1.18;100.00;-20713.84;5052205;28;20186;-73
2021/03/02 00:56:34;;;;;;;0.80;0.70;;;1.10;99.90;;;1.35;100.00;-20718.44;5047272;28;20209;-73
2021/03/02 00:59:01;;;;;;;0.70;0.70;;;1.10;99.90;;;1.43;100.00;-20720.69;5052364;28;20190;-73
2021/03/02 01:01:28;;;;;;;0.70;0.65;;;1.10;99.90;;;1.23;100.00;-20715.22;5051770;28;20229;-73
2021/03/02 01:03:56;;;;;;;0.70;0.60;;;1.10;99.90;;;1.23;100.00;-20715.22;5051764;28;20213;-72
2021/03/02 01:06:22;;;;;;;0.70;0.60;;;1.00;99.90;;;1.22;100.00;-20714.81;5035278;28;20662;-73
2021/03/02 01:08:50;;;;;;;0.70;0.70;;;1.00;99.90;;;1.10;100.00;-20711.75;5042173;28;20215;-72
2021/03/02 01:11:17;;;;;;;0.70;0.70;;;1.10;99.90;;;1.19;100.00;-20714.13;5054390;28;20182;-72
2021/03/02 01:13:45;;;;;;;0.70;0.65;;;1.10;99.90;;;1.18;100.00;-20713.97;5048587;28;20289;-73
2021/03/02 01:16:13;;;;;;;0.70;0.70;;;1.10;99.90;;;1.14;100.00;-20712.72;5033700;28;20293;-72
2021/03/02 01:18:40;;;;;;;0.80;0.70;;;1.00;99.90;;;1.25;100.00;-20715.78;5033686;28;20221;-73
2021/03/02 01:21:07;;;;;;;0.70;0.60;;;1.00;99.90;;;1.18;100.00;-20713.84;5041286;28;20564;-72
2021/03/02 01:23:34;;;;;;;0.80;0.70;;;1.00;99.90;;;1.17;100.00;-20713.69;5053030;28;20182;-73
2021/03/02 01:26:01;;;;;;;0.80;0.70;;;1.10;99.90;;;1.15;100.00;-20713.00;5053398;28;20200;-73
2021/03/02 01:28:28;;;;;;;0.70;0.60;;;1.00;99.90;;;1.18;100.00;-20713.84;5060623;28;20613;-72
2021/03/02 01:30:56;;;;;;;0.80;0.70;;;1.00;99.90;;;1.20;100.00;-20714.41;5062456;28;20189;-73
2021/03/02 01:33:23;;;;;;;0.70;0.70;;;0.90;99.90;;;1.08;100.00;-20711.19;5053174;28;20216;-73
2021/03/02 01:35:51;;;;;;;0.70;0.60;;;0.90;99.90;;;1.09;100.00;-20711.31;5051225;28;20596;-72
2021/03/02 01:38:18;;;;;;;0.77;0.70;;;0.90;99.90;;;1.15;100.00;-20713.00;5037802;28;20208;-73
2021/03/02 01:40:44;;;;;;;0.70;0.70;;;0.90;99.90;;;1.11;100.00;-20712.03;5036281;28;20224;-72
2021/03/02 01:43:30;;;;;;;0.80;0.70;;;0.90;99.90;;;1.10;100.00;-20711.59;5052343;28;20182;-72
2021/03/02 01:45:57;;;;;;;0.70;0.70;;;0.90;99.90;;;1.24;100.00;-20715.50;5052441;28;20210;-72
2021/03/02 01:48:25;;;;;;;0.75;0.70;;;1.00;99.90;;;1.11;100.00;-20711.88;5051999;28;20220;-74
2021/03/02 01:50:51;;;;;;;0.70;0.60;;;0.90;99.90;;;1.15;100.00;-20713.00;5047643;28;20663;-74
2021/03/02 01:53:18;;;;;;;0.73;0.70;;;0.90;99.90;;;1.08;100.00;-20711.03;5040625;28;20199;-73
2021/03/02 01:55:46;;;;;;;0.70;0.70;;;0.90;99.90;;;1.10;100.00;-20711.59;5051351;28;20204;-73
2021/03/02 01:58:13;;;;;;;0.70;0.60;;;0.90;99.90;;;1.08;100.00;-20711.03;5073477;28;20173;-73
2021/03/02 02:00:40;;;;;;;0.77;0.73;;;1.00;99.90;;;1.06;100.00;-20710.47;5067504;28;20189;-72
2021/03/02 02:03:24;;;;;;;0.70;0.60;;;0.90;99.90;;;1.13;100.00;-20712.44;5042652;28;20229;-72
2021/03/02 02:06:00;;;;;;;0.80;0.70;;;0.90;99.90;;;1.13;100.00;-20712.56;5039760;28;20264;-72
2021/03/02 02:08:40;;;;;;;0.70;0.60;;;1.00;99.90;;;1.03;100.00;-20709.63;5052841;28;20181;-72
2021/03/02 02:11:17;;;;;;;0.70;0.60;;;0.90;99.90;;;0.96;100.00;-20707.97;5053035;28;20189;-74
2021/03/02 02:14:09;;;;;;;0.70;0.60;;;0.90;99.90;;;0.98;100.00;-20708.38;5053083;28;20629;-74
2021/03/02 02:16:39;;;;;;;0.70;0.60;;;0.80;99.90;;;0.98;100.00;-20708.25;5039963;28;20193;-74
2021/03/02 02:19:22;;;;;;;0.70;0.70;;;0.80;99.90;;;0.98;100.00;-20708.25;5052094;28;20221;-73
2021/03/02 02:22:07;;;;;;;0.70;0.70;;;0.80;99.90;;;0.94;100.00;-20707.41;5046875;28;20193;-73
2021/03/02 02:24:47;;;;;;;0.70;0.60;;;0.80;99.90;;;0.99;100.00;-20708.53;5033872;28;20541;-72
2021/03/02 02:27:16;;;;;;;0.70;0.60;;;0.80;99.90;;;0.98;100.00;-20708.25;5067957;28;20199;-72
2021/03/02 02:29:43;;;;;;;0.70;0.60;;;0.80;99.90;;;0.90;100.00;-20706.28;5048107;28;20635;-74
2021/03/02 02:32:11;;;;;;;0.80;0.70;;;0.80;99.90;;;1.00;100.00;-20708.94;5032865;28;20194;-74
2021/03/02 02:34:40;;;;;;;0.70;0.60;;;0.80;99.90;;;1.00;100.00;-20708.81;5033666;28;20202;-74
2021/03/02 02:37:10;;;;;;;0.70;0.70;;;0.80;99.90;;;0.98;100.00;-20708.25;5037986;28;20692;-72
2021/03/02 02:39:39;;;;;;;0.70;0.65;;;0.80;99.90;;;0.91;100.00;-20706.44;5052301;28;20193;-74
2021/03/02 02:42:06;;;;;;;0.70;0.60;;;0.80;99.90;;;1.00;100.00;-20708.94;5052338;28;20189;-73
2021/03/02 02:44:35;;;;;;;0.70;0.70;;;0.70;99.90;;;0.94;100.00;-20707.41;5035020;28;20273;-73
2021/03/02 02:47:03;;;;;;;0.73;0.73;;;0.70;99.90;;;0.91;100.00;-20706.44;5032847;28;20265;-73
2021/03/02 02:49:32;;;;;;;0.70;0.60;;;0.70;99.90;;;0.85;100.00;-20704.88;5033737;28;20233;-74
2021/03/02 02:51:59;;;;;;;0.75;0.70;;;0.70;99.90;;;0.84;100.00;-20704.47;5033465;28;20191;-73
2021/03/02 02:54:26;;;;;;;0.70;0.60;;;0.70;99.90;;;0.90;100.00;-20706.16;5033437;28;20208;-73
2021/03/02 02:56:55;;;;;;;0.75;0.70;;;0.70;99.90;;;0.99;100.00;-20708.53;5053365;28;20206;-73
2021/03/02 02:59:27;;;;;;;0.70;0.70;;;0.70;99.90;;;0.87;100.00;-20705.31;5053975;28;20594;-73
2021/03/02 03:01:59;;;;;;;0.90;0.70;;;0.70;99.90;;;0.83;100.00;-20704.31;5045688;28;20240;-74
2021/03/02 03:04:30;;;;;;;0.70;0.60;;;0.60;99.90;;;0.77;100.00;-20702.66;5057422;28;20213;-74
2021/03/02 03:06:59;;;;;;;0.70;0.60;;;0.60;99.90;;;0.78;100.00;-20702.94;5052269;28;20185;-74
2021/03/02 03:09:26;;;;;;;0.80;0.70;;;0.60;99.90;;;0.77;100.00;-20702.50;5054257;28;20269;-73
2021/03/02 03:12:00;;;;;;;0.80;0.80;;;0.50;99.90;;;0.68;100.00;-20700.13;5055345;28;20196;-74
2021/03/02 03:14:50;;;;;;;0.80;0.70;;;0.60;99.90;;;0.68;100.00;-20700.13;5054256;28;20190;-73
2021/03/02 03:17:20;;;;;;;0.70;0.70;;;0.50;99.90;;;0.72;100.00;-20701.25;5051561;28;20209;-74
2021/03/02 03:19:48;;;;;;;0.70;0.60;;;0.50;99.90;;;0.61;100.00;-20698.19;5053984;28;20221;-74
2021/03/02 03:22:16;;;;;;;0.70;0.70;;;0.50;99.90;;;0.71;100.00;-20700.97;5055732;28;20200;-73
2021/03/02 03:24:44;;;;;;;0.70;0.70;;;0.40;99.90;;;0.72;100.00;-20701.25;5054198;28;20772;-73
2021/03/02 03:27:13;;;;;;;0.70;0.60;;;0.50;99.90;;;0.73;100.00;-20701.53;5066487;28;20200;-73
2021/03/02 03:29:42;;;;;;;0.70;0.70;;;0.50;99.90;;;0.63;100.00;-20698.75;5049554;28;20197;-74
2021/03/02 03:32:11;;;;;;;0.73;0.70;;;0.40;99.90;;;0.59;100.00;-20697.75;5055409;28;20189;-73
2021/03/02 03:34:42;;;;;;;0.80;0.70;;;0.40;99.90;;;0.62;100.00;-20698.44;5054591;28;20225;-73
2021/03/02 03:37:09;;;;;;;0.70;0.60;;;0.40;99.90;;;0.78;100.00;-20702.78;5039437;28;20288;-73
2021/03/02 03:39:36;;;;;;;0.80;0.70;;;0.30;99.90;;;0.70;100.00;-20700.84;5035664;28;20248;-73
2021/03/02 03:42:04;;;;;;;0.70;0.60;;;0.40;99.90;;;0.60;100.00;-20697.91;5049743;28;20193;-73
2021/03/02 03:44:31;;;;;;;0.70;0.70;;;0.40;99.90;;;0.69;100.00;-20700.56;5055293;28;20264;-74
2021/03/02 03:46:57;;;;;;;0.70;0.60;;;0.30;99.90;;;1.17;100.00;-20713.56;5054964;28;20214;-74
2021/03/02 03:49:25;;;;;;;0.77;0.73;;;0.70;99.90;;;1.13;100.00;-20712.44;5038797;28;20301;-73
2021/03/02 03:51:55;;;;;;;0.70;0.60;;;0.90;99.90;;;1.13;100.00;-20712.44;5049024;28;20189;-74
2021/03/02 03:54:25;;;;;;;0.80;0.70;;;0.80;99.90;;;1.14;100.00;-20712.84;5053725;28;20193;-73
2021/03/02 03:56:55;;;;;;;0.70;0.70;;;0.80;99.90;;;1.20;100.00;-20714.41;5055291;28;20289;-71
2021/03/02 03:59:25;;;;;;;0.70;0.60;;;0.90;99.90;;;1.20;100.00;-20714.41;5044296;28;20186;-74
2021/03/02 04:01:54;;;;;;;0.70;0.70;;;0.90;99.90;;;1.08;100.00;-20711.03;5054911;28;20181;-73
2021/03/02 04:04:24;;;;;;;0.70;0.60;;;0.70;99.90;;;1.00;100.00;-20708.81;5054979;28;20221;-72
2021/03/02 04:06:53;;;;;;;0.70;0.60;;;0.70;99.90;;;0.81;100.00;-20703.78;5041632;28;20190;-74
2021/03/02 04:09:21;;;;;;;0.70;0.70;;;0.60;99.90;;;0.95;100.00;-20707.69;5048334;28;20243;-73
2021/03/02 04:11:48;;;;;;;0.70;0.68;;;0.60;99.90;;;1.03;100.00;-20709.63;5054896;28;20550;-72
2021/03/02 04:14:16;;;;;;;0.70;0.70;;;0.70;99.90;;;1.10;100.00;-20711.75;5055100;28;20183;-72
2021/03/02 04:16:43;;;;;;;0.70;0.70;;;0.70;99.90;;;0.86;100.00;-20705.03;5042561;28;20210;-72
2021/03/02 04:19:11;;;;;;;0.70;0.60;;;0.60;99.90;;;0.89;100.00;-20705.88;5046342;28;20217;-72
2021/03/02 04:21:38;;;;;;;0.70;0.60;;;0.50;99.90;;;0.79;100.00;-20703.22;5044826;28;20226;-72
2021/03/02 04:24:07;;;;;;;0.70;0.68;;;0.50;99.90;;;0.75;100.00;-20701.94;5055015;28;20703;-72
2021/03/02 04:26:34;;;;;;;0.70;0.60;;;0.50;99.90;;;0.69;100.00;-20700.41;5047423;28;20217;-72
2021/03/02 04:29:01;;;;;;;0.80;0.70;;;0.50;99.90;;;0.68;100.00;-20700.13;5043552;28;20186;-73
2021/03/02 04:31:28;;;;;;;0.80;0.80;;;0.50;99.90;;;0.68;100.00;-20700.28;5034887;28;20276;-72
2021/03/02 04:33:55;;;;;;;0.70;0.70;;;0.50;99.90;;;0.79;100.00;-20703.22;5034632;28;20210;-73
2021/03/02 04:36:23;;;;;;;0.70;0.60;;;0.50;99.90;;;0.79;100.00;-20703.22;5046718;28;20211;-72
2021/03/02 04:38:49;;;;;;;0.70;0.60;;;0.60;99.90;;;0.78;100.00;-20702.94;5059862;28;20194;-72
2021/03/02 04:41:17;;;;;;;0.70;0.70;;;0.50;99.90;;;0.87;100.00;-20705.44;5057254;28;20204;-71
2021/03/02 04:43:45;;;;;;;0.70;0.60;;;0.50;99.90;;;0.84;100.00;-20704.59;5055506;28;20266;-72
2021/03/02 04:46:12;;;;;;;0.70;0.60;;;0.60;99.90;;;0.81;100.00;-20703.63;5044561;28;20186;-73
2021/03/02 04:48:39;;;;;;;0.70;0.70;;;0.50;99.90;;;0.82;100.00;-20703.91;5055931;28;20259;-72
2021/03/02 04:51:07;;;;;;;0.70;0.60;;;0.50;99.90;;;0.81;100.00;-20703.78;5053512;28;20243;-72
2021/03/02 04:53:34;;;;;;;0.70;0.70;;;0.50;99.90;;;0.98;100.00;-20708.25;5054001;28;20200;-72
2021/03/02 04:56:02;;;;;;;0.98;0.98;;;0.60;99.90;;;0.81;100.00;-20703.78;5047990;28;20217;-71
2021/03/02 04:58:29;;;;;;;0.70;0.70;;;0.50;99.90;;;0.73;100.00;-20701.53;5056868;28;20201;-72
2021/03/02 05:00:56;;;;;;;0.70;0.70;;;0.50;99.90;;;0.79;100.00;-20703.22;5054154;28;20217;-72
2021/03/02 05:03:23;;;;;;;0.70;0.70;;;0.40;99.90;;;0.68;100.00;-20700.28;5038362;28;20214;-73
2021/03/02 05:05:50;;;;;;;0.70;0.70;;;0.40;99.90;;;0.77;100.00;-20702.66;5055804;28;20248;-72
2021/03/02 05:08:17;;;;;;;0.80;0.70;;;0.50;99.90;;;0.74;100.00;-20701.81;5053976;28;20250;-73
2021/03/02 05:10:44;;;;;;;0.70;0.63;;;0.40;99.90;;;0.77;100.00;-20702.50;5050260;28;20201;-72
2021/03/02 05:13:12;;;;;;;0.70;0.60;;;0.40;99.90;;;0.70;100.00;-20700.69;5045111;28;20189;-72
2021/03/02 05:15:40;;;;;;;0.70;0.70;;;0.40;99.90;;;0.66;100.00;-20699.56;5047858;28;20204;-72
2021/03/02 05:18:07;;;;;;;0.70;0.70;;;0.40;99.90;;;0.73;100.00;-20701.66;5059573;28;20221;-71
2021/03/02 05:20:35;;;;;;;0.70;0.70;;;0.50;99.90;;;0.75;100.00;-20702.09;5063886;28;20184;-72
2021/03/02 05:23:02;;;;;;;0.73;0.70;;;0.50;99.90;;;0.83;100.00;-20704.31;5052668;28;20189;-72
2021/03/02 05:25:29;;;;;;;0.70;0.60;;;0.60;99.90;;;1.01;100.00;-20709.22;5041315;28;20201;-72
2021/03/02 05:27:56;;;;;;;0.80;0.70;;;0.70;99.90;;;1.19;100.00;-20714.13;5032237;28;20194;-72
2021/03/02 05:30:23;;;;;;;0.70;0.60;;;1.00;99.90;;;1.45;100.00;-20721.38;5033840;28;20605;-72
2021/03/02 05:32:51;;;;;;;0.80;0.70;;;1.40;99.90;;;1.59;100.00;-20725.03;5033484;28;20173;-73
2021/03/02 05:35:18;;;;;;;0.88;0.88;;;1.30;99.90;;;1.58;100.00;-20724.75;5033662;28;20186;-71
2021/03/02 05:37:45;;;;;;;0.70;0.70;;;1.30;99.90;;;1.67;100.00;-20727.41;5033515;28;20206;-72
2021/03/02 05:40:14;;;;;;;0.80;0.80;;;1.30;99.90;;;1.62;100.00;-20725.84;5039940;28;20185;-72
2021/03/02 05:42:41;;;;;;;0.70;0.60;;;1.40;99.90;;;1.88;100.00;-20732.97;5068882;28;20619;-72
2021/03/02 05:45:10;;;;;;;0.70;0.60;;;1.50;99.90;;;1.86;100.00;-20732.41;5053661;28;20178;-72
2021/03/02 05:47:39;;;;;;;0.70;0.60;;;1.60;99.90;;;1.96;100.00;-20735.22;5053084;28;20578;-72
2021/03/02 05:50:08;;;;;;;0.70;0.60;;;1.70;99.90;;;2.02;100.00;-20736.75;5054303;28;20580;-72
2021/03/02 05:52:36;;;;;;;0.70;0.60;;;1.70;99.90;;;1.98;100.00;-20735.63;5052078;28;20255;-72
2021/03/02 05:55:06;;;;;;;0.70;0.60;;;1.80;99.90;;;2.12;100.00;-20739.53;5045787;28;20638;-72
2021/03/02 05:57:34;;;;;;;0.70;0.60;;;1.80;99.90;;;2.11;100.00;-20739.28;5053141;28;20210;-72
2021/03/02 06:00:00;;;;;;;0.70;0.60;;;2.00;99.90;;;2.09;100.00;-20738.72;5052904;28;20197;-72
2021/03/02 06:02:28;;;;;;;0.70;0.70;;;1.90;99.90;;;2.16;100.00;-20740.81;5053175;28;20182;-72
2021/03/02 06:04:55;;;;;;;0.70;0.60;;;2.00;99.90;;;2.18;100.00;-20741.38;5053373;28;20540;-72
2021/03/02 06:07:22;;;;;;;0.70;0.70;;;2.00;99.90;;;2.33;100.00;-20745.41;5052356;28;20177;-72
2021/03/02 06:09:50;;;;;;;0.70;0.60;;;2.10;99.90;;;2.30;100.00;-20744.56;5045095;28;20206;-72
2021/03/02 06:12:17;;;;;;;0.70;0.70;;;2.20;99.90;;;2.51;100.00;-20750.16;5032857;28;20194;-72
2021/03/02 06:14:45;;;;;;;0.70;0.60;;;2.30;99.90;;;2.69;100.00;-20755.03;5032176;28;20550;-72
2021/03/02 06:17:12;;;;;;;0.70;0.70;;;2.50;99.90;;;2.92;100.00;-20761.31;5032579;28;20202;-72
2021/03/02 06:19:44;;;;;;;0.70;0.70;;;2.60;99.90;;;3.19;100.00;-20768.84;5033098;28;20607;-72
2021/03/02 06:22:37;;;;;;;0.70;0.60;;;2.90;99.90;;;3.18;100.00;-20768.59;5038459;28;20198;-72
2021/03/02 06:25:07;;;;;;;0.70;0.60;;;3.10;99.90;;;3.28;100.00;-20771.22;5037119;28;20612;-72
2021/03/02 06:27:44;;;;;;;1.50;1.40;;;3.10;99.90;;;3.39;100.00;-20774.44;5033083;28;20197;-72
2021/03/02 06:30:13;;;;;;;0.70;0.70;;;3.20;99.90;;;3.74;100.00;-20783.91;5033192;28;20201;-72
2021/03/02 06:32:42;;;;;;;0.70;0.50;;;3.60;99.90;;;3.96;100.00;-20789.78;5036474;28;20181;-72
2021/03/02 06:35:12;;;;;;;0.70;0.60;;;3.80;99.90;;;3.90;100.00;-20788.09;5037343;28;20276;-73
2021/03/02 06:37:42;;;;;;;0.70;0.60;;;3.80;99.90;;;3.96;100.00;-20789.78;5037199;28;20202;-72
2021/03/02 06:40:11;;;;;;;0.70;0.60;;;3.80;99.90;;;3.88;100.00;-20787.69;5037205;28;20288;-72
2021/03/02 06:42:40;;;;;;;0.70;0.60;;;3.80;99.90;;;3.81;100.00;-20785.88;5036772;28;20190;-72
2021/03/02 06:45:10;;;;;;;0.70;0.60;;;3.70;99.90;;;3.98;100.00;-20790.34;5036937;28;20688;-73
2021/03/02 06:47:40;;;;;;;0.70;0.65;;;3.80;99.90;;;3.99;100.00;-20790.63;5036485;28;20198;-72
2021/03/02 06:50:24;;;;;;;0.70;0.60;;;3.90;99.90;;;4.04;100.00;-20792.16;5037255;28;20256;-73
2021/03/02 06:52:52;;;;;;;0.70;0.60;;;3.80;99.90;;;4.25;100.00;-20797.72;5067405;28;20209;-72
2021/03/02 06:55:27;;;;;;;0.70;0.60;;;4.10;99.90;;;4.27;100.00;-20798.41;5040740;28;20274;-72
2021/03/02 06:58:19;;;;;;;0.70;0.60;;;4.10;99.90;;;4.52;100.00;-20805.09;5077095;28;20185;-73
2021/03/02 07:00:53;;;;;;;0.70;0.60;;;4.30;99.90;;;4.64;100.00;-20808.31;5055562;28;20654;-73
2021/03/02 07:03:24;;;;;;;0.70;0.60;;;4.40;99.90;;;4.61;100.00;-20807.63;5056439;28;20201;-73
2021/03/02 07:05:51;;;;;;;0.70;0.60;;;4.40;99.90;;;4.82;100.00;-20813.47;5056977;28;20653;-73
2021/03/02 07:08:19;;;;;;;0.70;0.60;;;4.60;99.90;;;4.76;100.00;-20811.78;5056131;28;20194;-73
2021/03/02 07:10:55;;;;;;;0.70;0.60;;;4.60;99.90;;;4.89;100.00;-20815.13;5056554;28;20182;-73
2021/03/02 07:13:24;;;;;;;0.70;0.70;;;4.60;99.90;;;4.91;100.00;-20815.69;5056579;28;20173;-73
2021/03/02 07:15:51;;;;;;;0.80;0.70;;;4.60;99.90;;;4.97;100.00;-20817.34;5056599;28;20222;-73
2021/03/02 07:18:24;;;;;;;0.70;0.60;;;4.70;99.90;;;5.01;100.00;-20818.47;5055839;28;20236;-73
2021/03/02 07:20:54;;;;;;;0.90;0.70;;;4.70;99.90;;;5.05;100.00;-20819.72;5056385;28;20253;-73
2021/03/02 07:23:24;;;;;;;0.70;0.70;;;4.70;99.90;;;5.12;100.00;-20821.53;5056781;28;20182;-73
2021/03/02 07:25:55;;;;;;;0.70;0.60;;;4.90;99.90;;;5.38;100.00;-20828.63;5054982;28;20281;-73
2021/03/02 07:28:30;;;;;;;0.70;0.70;;;5.00;99.90;;;5.54;100.00;-20832.94;5054268;28;20201;-73
2021/03/02 07:30:57;;;;;;;0.70;0.60;;;5.20;99.90;;;5.59;100.00;-20834.34;5036737;28;20170;-73
2021/03/02 07:33:25;;;;;;;0.70;0.70;;;5.30;99.90;;;5.66;100.00;-20836.28;5045194;28;20682;-73
2021/03/02 07:35:58;;;;;;;0.70;0.65;;;5.40;99.90;;;5.74;100.00;-20838.50;5056616;28;20630;-73
2021/03/02 07:38:27;;;;;;;0.70;0.65;;;5.50;99.90;;;6.04;100.00;-20846.59;5055582;28;20181;-73
2021/03/02 07:40:58;;;;;;;0.70;0.60;;;5.60;99.90;;;6.07;100.00;-20847.41;5055668;28;20605;-73
2021/03/02 07:43:29;;;;;;;0.70;0.60;;;5.80;99.90;;;6.24;100.00;-20852.16;5055154;28;20169;-73
2021/03/02 07:45:57;;;;;;;0.70;0.60;;;6.00;99.90;;;6.28;100.00;-20853.25;5056284;28;20185;-73
2021/03/02 07:48:30;;;;;;;0.70;0.60;;;6.00;99.90;;;6.37;100.00;-20855.47;5054262;28;20243;-72
2021/03/02 07:51:21;;;;;;;0.73;0.70;;;6.00;99.90;;;6.38;100.00;-20855.75;5036421;28;20555;-73
2021/03/02 07:53:51;;;;;;;0.70;0.60;;;6.00;99.90;;;6.38;100.00;-20855.75;5036473;28;20270;-72
2021/03/02 07:56:24;;;;;;;0.70;0.60;;;6.10;99.90;;;6.49;100.00;-20858.97;5049391;28;20680;-72
2021/03/02 07:59:19;;;;;;;0.70;0.60;;;6.20;99.90;;;6.68;100.00;-20864.09;5054760;28;20227;-72
2021/03/02 08:02:17;;;;;;;0.70;0.60;;;6.30;99.90;;;6.68;100.00;-20863.97;5056621;28;20174;-73
2021/03/02 08:04:46;;;;;;;0.70;0.60;;;6.40;99.90;;;6.88;100.00;-20869.38;5056177;28;20202;-73
2021/03/02 08:07:33;;;;;;;0.70;0.60;;;6.50;99.90;;;6.93;100.00;-20870.78;5049007;28;20194;-72
2021/03/02 08:10:34;;;;;;;0.70;0.60;;;6.60;99.90;;;7.19;100.00;-20878.00;5050516;28;20225;-74
2021/03/02 08:13:37;;;;;;;0.70;0.57;;;6.90;99.90;;;7.27;100.00;-20880.06;5055276;28;20456;-73
2021/03/02 08:16:06;;;;;;;0.70;0.60;;;7.00;99.90;;;7.35;100.00;-20882.28;5056160;28;20472;-73
2021/03/02 08:18:35;;;;;;;0.70;0.60;;;7.00;99.90;;;7.56;100.00;-20887.84;5054910;28;20209;-72
2021/03/02 08:21:09;;;;;;;0.70;0.60;;;7.20;99.90;;;7.57;100.00;-20888.13;5035788;28;20447;-73
2021/03/02 08:23:54;;;;;;;0.83;0.70;;;7.30;99.90;;;7.83;100.00;-20895.22;5036175;28;20418;-72
2021/03/02 08:26:30;;;;;;;0.70;0.70;;;7.40;99.90;;;7.87;100.00;-20896.31;5052644;28;20448;-73
2021/03/02 08:29:08;;;;;;;0.70;0.50;;;7.50;99.90;;;8.15;100.00;-20903.94;5055665;28;20426;-73
2021/03/02 08:31:38;;;;;;;0.70;0.57;;;7.80;99.90;;;8.45;100.00;-20912.13;5070913;28;20807;-72
2021/03/02 08:34:09;;;;;;;0.70;0.70;;;8.00;99.90;;;8.74;100.00;-20919.91;5055931;28;20448;-72
2021/03/02 08:36:39;;;;;;;0.70;0.60;;;8.20;99.90;;;8.60;100.00;-20916.16;5055859;28;20444;-72
2021/03/02 08:39:16;;;;;;;0.70;0.50;;;8.20;99.90;;;8.79;100.00;-20921.44;5056590;28;20447;-74
2021/03/02 08:41:47;;;;;;;0.83;0.80;;;8.30;99.90;;;8.96;100.00;-20926.00;5054956;28;20775;-73
2021/03/02 08:44:19;;;;;;;0.70;0.60;;;8.40;99.90;;;9.07;100.00;-20929.06;5054892;28;20483;-72
2021/03/02 08:46:49;;;;;;;0.70;0.60;;;8.50;99.90;;;9.16;100.00;-20931.53;5050163;28;20916;-72
2021/03/02 08:49:17;;;;;;;0.70;0.50;;;8.80;99.90;;;9.44;100.00;-20939.16;5052115;28;20460;-72
2021/03/02 08:51:45;;;;;;;0.70;0.60;;;8.90;99.90;;;9.59;100.00;-20943.19;5055042;28;20431;-73
2021/03/02 08:54:15;;;;;;;0.70;0.60;;;9.00;99.90;;;9.82;100.00;-20949.28;5053101;28;20761;-72
2021/03/02 08:56:43;;;;;;;0.70;0.50;;;9.30;99.90;;;10.07;100.00;-20956.19;5074046;28;21452;-72
2021/03/02 08:59:12;;;;;;;0.70;0.60;;;9.30;99.90;;;10.07;100.00;-20956.06;5074948;28;20434;-72
2021/03/02 09:01:40;;;;;;;0.70;0.60;;;9.60;99.90;;;10.25;100.00;-20960.91;5055282;28;20478;-73
2021/03/02 09:04:13;;;;;;;0.70;0.60;;;9.70;99.90;;;10.98;100.00;-20980.81;5036898;28;20464;-72
2021/03/02 09:06:43;;;;;;;0.80;0.70;;;9.90;99.90;;;11.21;100.00;-20987.03;5034516;28;20419;-72
2021/03/02 09:09:12;;;;;;;0.70;0.60;;;10.10;99.90;;;11.97;100.00;-21007.63;5053670;28;20511;-72
2021/03/02 09:11:42;;;;;;;0.80;0.70;;;10.60;99.90;;;12.16;100.00;-21012.59;5054198;28;20450;-72
2021/03/02 09:14:15;;;;;;;0.80;0.70;;;10.70;99.90;;;12.13;100.00;-21011.78;5051839;28;20636;-72
2021/03/02 09:16:47;;;;;;;0.80;0.70;;;10.90;99.90;;;12.70;100.00;-21027.38;5045081;28;20476;-72
2021/03/02 09:19:24;;;;;;;0.70;0.60;;;11.10;99.90;;;13.04;100.00;-21036.63;5054127;28;20450;-73
2021/03/02 09:22:00;;;;;;;0.70;0.60;;;11.20;99.90;;;13.33;100.00;-21044.34;5034867;28;20546;-71
2021/03/02 09:24:41;;;;;;;0.80;0.70;;;11.50;99.90;;;13.30;100.00;-21043.50;5033907;28;20408;-73
2021/03/02 09:27:11;;;;;;;0.83;0.70;;;11.30;99.90;;;14.00;100.00;-21062.53;5036177;28;20776;-73
2021/03/02 09:29:42;;;;;;;0.73;0.67;;;12.10;99.90;;;14.97;100.00;-21088.69;5073521;28;20453;-72
2021/03/02 09:32:11;;;;;;;0.80;0.70;;;12.30;99.90;;;14.83;100.00;-21084.84;5053176;28;20432;-73
2021/03/02 09:34:42;;;;;;;0.80;0.60;;;12.50;99.90;;;14.72;100.00;-21081.81;5053546;28;20482;-74
2021/03/02 09:37:13;;;;;;;0.80;0.60;;;12.60;99.90;;;14.71;100.00;-21081.66;5053481;28;20451;-73
2021/03/02 09:39:43;;;;;;;1.40;1.30;;;12.70;99.90;;;14.20;100.00;-21067.75;5052306;28;20409;-73
2021/03/02 09:42:18;;;;;;;0.80;0.70;;;12.50;99.90;;;15.38;100.00;-21099.69;5053028;28;20498;-73
2021/03/02 09:44:51;;;;;;;0.70;0.60;;;12.70;99.90;;;15.71;100.00;-21108.50;5053811;28;20444;-73
2021/03/02 09:47:25;;;;;;;0.80;0.63;;;13.10;99.90;;;16.01;100.00;-21116.59;5052008;28;20411;-73
2021/03/02 09:49:58;;;;;;;0.80;0.60;;;13.00;99.90;;;15.97;100.00;-21115.50;5044929;28;20506;-73
2021/03/02 09:52:35;;;;;;;0.93;0.80;;;13.50;99.90;;;15.83;100.00;-21111.78;5032346;28;20503;-73
2021/03/02 09:55:26;;;;;;;0.70;0.60;;;14.00;99.90;;;15.97;100.00;-21115.38;5033625;28;20484;-73
2021/03/02 10:00:40;;;;;;;0.83;0.77;;;14.00;94.70;;;16.08;100.00;-21118.38;5053330;28;20419;-73
2021/03/02 10:03:11;;;;;;;3.73;1.17;;;13.70;91.40;;;16.54;100.00;-21130.75;5053237;28;20458;-73
2021/03/02 10:05:53;;;;;;;2.40;2.20;;;13.70;89.90;;;16.06;100.00;-21117.84;5064663;28;20795;-73
2021/03/02 10:08:27;;;;;;;1.20;1.10;;;14.00;88.80;;;16.52;100.00;-21130.19;5073237;28;20384;-73
2021/03/02 10:10:57;;;;;;;1.97;1.77;;;14.10;85.80;;;17.02;100.00;-21143.66;5073270;28;20416;-73
2021/03/02 10:13:36;;;;;;;0.80;0.60;;;14.40;80.70;;;17.02;100.00;-21143.66;5073297;28;20433;-73
2021/03/02 10:16:30;;;;;;;1.80;1.27;;;14.00;77.20;;;16.68;100.00;-21134.59;5073132;28;20403;-73
2021/03/02 10:19:03;;;;;;;1.20;1.10;;;14.40;77.90;;;17.55;100.00;-21157.91;5070296;28;20570;-73
2021/03/02 10:21:40;;;;;;;1.00;0.63;;;14.50;74.10;;;16.40;100.00;-21127.16;5051481;28;20550;-73
2021/03/02 10:24:08;;;;;;;0.70;0.60;;;14.70;70.70;;;17.20;100.00;-21148.44;5033306;28;20775;-73
2021/03/02 10:26:36;;;;;;;0.70;0.60;;;14.50;69.60;;;16.84;100.00;-21138.84;5033039;28;20433;-73
2021/03/02 10:29:06;;;;;;;0.77;0.70;;;15.00;67.90;;;17.00;100.00;-21143.22;5033043;28;20912;-72
2021/03/02 10:31:38;;;;;;;0.70;0.50;;;15.30;65.00;;;17.17;100.00;-21147.63;5056425;28;20443;-73
2021/03/02 10:34:08;;;;;;;1.10;1.00;;;15.30;64.10;;;16.36;100.00;-21126.06;5072967;28;20451;-72
2021/03/02 10:36:37;;;;;;;0.87;0.87;;;15.00;60.20;;;17.80;100.00;-21164.78;5073046;28;20411;-73